Time,TemperatureF,DewpointF,PressureIn,WindDirection,WindDirectionDegrees,WindSpeedMPH,WindSpeedGustMPH,Humidity,HourlyPrecipIn,Conditions,Clouds,dailyrainin,SolarRadiationWatts/m^2,SoftwareType,DateUTC
2013-02-16 00:00:00,3.9,-2.2,30.01,SSE,155,2.0,7.0,75,0.00,,OVC200,0.00,0.00,VWS V14.01,2013-02-16 06:00:00,
2013-02-16 00:04:00,3.9,-2.2,30.01,SE,146,3.0,7.0,75,0.00,,OVC200,0.00,0.00,VWS V14.01,2013-02-16 06:04:00,
2013-02-16 00:09:00,3.7,-2.4,30.01,SE,144,3.0,4.0,75,0.00,,OVC200,0.00,0.00,VWS V14.01,2013-02-16 06:09:00,
2013-02-16 00:14:00,3.5,-2.6,30.01,SE,146,0.0,4.0,75,0.00,,OVC200,0.00,0.00,VWS V14.01,2013-02-16 06:14:00,
2013-02-16 00:19:00,3.4,-2.7,30.01,SE,146,3.0,4.0,75,0.00,,OVC200,0.00,0.00,VWS V14.01,2013-02-16 06:19:00,
2013-02-16 00:24:00,3.4,-2.7,30.01,SSE,147,1.0,4.0,75,0.00,,OVC200,0.00,0.00,VWS V14.01,2013-02-16 06:24:00,
2013-02-16 00:29:00,3.2,-2.9,30.01,SSE,148,3.0,4.0,75,0.00,,OVC200,0.00,0.00,VWS V14.01,2013-02-16 06:29:00,
2013-02-16 00:30:00,3.2,-2.6,30.01,SSE,148,2.0,4.0,76,0.00,,OVC075,0.00,0.00,VWS V15.00,2013-02-16 06:30:00,
2013-02-16 00:34:00,3.2,-2.6,30.01,SSE,148,3.0,3.0,76,0.00,,OVC200,0.00,0.00,VWS V14.01,2013-02-16 06:34:00,
2013-02-16 00:39:00,3.2,-2.6,30.01,SSE,148,0.0,4.0,76,0.00,,OVC200,0.00,0.00,VWS V14.01,2013-02-16 06:39:00,
2013-02-16 00:42:00,3.2,-2.6,30.01,SSE,148,1.0,4.0,76,0.00,,OVC200,0.00,0.00,VWS V14.01,2013-02-16 06:42:00,
2013-02-16 00:47:00,3.0,-2.8,30.01,SSE,148,2.0,4.0,76,0.00,,OVC200,0.00,0.00,VWS V14.01,2013-02-16 06:47:00,
2013-02-16 00:52:00,3.2,-2.6,30.00,SSE,150,2.0,6.0,76,0.00,,OVC200,0.00,0.00,VWS V14.01,2013-02-16 06:52:00,
2013-02-16 00:57:00,3.2,-2.6,30.00,SE,142,4.0,6.0,76,0.00,,OVC200,0.00,0.00,VWS V14.01,2013-02-16 06:57:00,
2013-02-16 01:00:00,3.2,-2.6,30.00,SE,132,4.0,6.0,76,0.00,,OVC075,0.00,0.00,VWS V15.00,2013-02-16 07:00:00,
2013-02-16 01:02:00,3.2,-2.6,30.00,SE,132,4.0,6.0,76,0.00,,OVC200,0.00,0.00,VWS V14.01,2013-02-16 07:02:00,
2013-02-16 01:07:00,3.2,-2.6,30.00,SE,132,2.0,4.0,76,0.00,,OVC200,0.00,0.00,VWS V14.01,2013-02-16 07:07:00,
2013-02-16 01:12:00,3.0,-2.8,30.00,SE,138,3.0,5.0,76,0.00,,OVC200,0.00,0.00,VWS V14.01,2013-02-16 07:12:00,
2013-02-16 01:17:00,3.0,-2.8,30.00,SE,136,3.0,5.0,76,0.00,,OVC200,0.00,0.00,VWS V14.01,2013-02-16 07:17:00,
2013-02-16 01:22:00,3.2,-2.6,30.00,SE,134,2.0,6.0,76,0.00,,OVC200,0.00,0.00,VWS V14.01,2013-02-16 07:22:00,
2013-02-16 01:27:00,3.0,-2.8,30.00,SE,133,0.0,6.0,76,0.00,,OVC200,0.00,0.00,VWS V14.01,2013-02-16 07:27:00,
2013-02-16 01:30:00,2.8,-3.0,30.01,SE,134,2.0,6.0,76,0.00,,OVC075,0.00,0.00,VWS V15.00,2013-02-16 07:30:00,
2013-02-16 01:32:00,3.0,-2.8,30.00,SE,134,2.0,6.0,76,0.00,,OVC200,0.00,0.00,VWS V14.01,2013-02-16 07:32:00,
2013-02-16 01:37:00,2.8,-3.0,30.01,SE,143,2.0,5.0,76,0.00,,OVC200,0.00,0.00,VWS V14.01,2013-02-16 07:37:00,
2013-02-16 01:42:00,2.8,-3.0,30.01,SE,144,3.0,5.0,76,0.00,,OVC200,0.00,0.00,VWS V14.01,2013-02-16 07:42:00,
2013-02-16 01:47:00,2.8,-3.0,30.01,SSE,147,2.0,5.0,76,0.00,,OVC200,0.00,0.00,VWS V14.01,2013-02-16 07:47:00,
2013-02-16 01:52:00,2.8,-3.0,30.00,SSE,147,1.0,5.0,76,0.00,,OVC200,0.00,0.00,VWS V14.01,2013-02-16 07:52:00,
2013-02-16 01:57:00,2.8,-3.0,30.00,SE,142,3.0,6.0,76,0.00,,OVC200,0.00,0.00,VWS V14.01,2013-02-16 07:57:00,
2013-02-16 02:00:00,2.8,-2.8,30.00,SSE,155,2.0,6.0,77,0.00,,OVC075,0.00,0.00,VWS V15.00,2013-02-16 08:00:00,
2013-02-16 02:02:00,2.8,-2.8,30.00,SE,144,5.0,6.0,77,0.00,,OVC200,0.00,0.00,VWS V14.01,2013-02-16 08:02:00,
2013-02-16 02:07:00,3.0,-2.6,30.00,SSE,156,4.0,6.0,77,0.00,,OVC200,0.00,0.00,VWS V14.01,2013-02-16 08:07:00,
2013-02-16 02:12:00,3.0,-2.6,30.00,SSE,157,3.0,6.0,77,0.00,,OVC200,0.00,0.00,VWS V14.01,2013-02-16 08:12:00,
2013-02-16 02:17:00,3.0,-2.6,30.00,SSE,157,2.0,6.0,77,0.00,,OVC200,0.00,0.00,VWS V14.01,2013-02-16 08:17:00,
2013-02-16 02:22:00,2.8,-2.8,30.00,SSE,157,1.0,6.0,77,0.00,,OVC200,0.00,0.00,VWS V14.01,2013-02-16 08:22:00,
2013-02-16 02:27:00,2.6,-3.0,30.00,SSE,157,1.0,6.0,77,0.00,,OVC200,0.00,0.00,VWS V14.01,2013-02-16 08:27:00,
2013-02-16 02:30:00,2.2,-3.3,30.00,SSE,157,1.0,6.0,77,0.00,,OVC075,0.00,0.00,VWS V15.00,2013-02-16 08:30:00,
2013-02-16 02:32:00,2.4,-3.2,30.00,SSE,157,0.0,6.0,77,0.00,,OVC200,0.00,0.00,VWS V14.01,2013-02-16 08:32:00,
2013-02-16 02:37:00,2.2,-3.1,30.00,SSE,157,1.0,3.0,78,0.00,,OVC200,0.00,0.00,VWS V14.01,2013-02-16 08:37:00,
2013-02-16 02:42:00,2.0,-3.3,30.00,SSE,157,1.0,4.0,78,0.00,,OVC200,0.00,0.00,VWS V14.01,2013-02-16 08:42:00,
2013-02-16 02:47:00,2.0,-3.3,30.00,SSE,157,2.0,4.0,78,0.00,,OVC200,0.00,0.00,VWS V14.01,2013-02-16 08:47:00,
2013-02-16 02:52:00,2.0,-3.0,30.00,SSE,158,2.0,4.0,79,0.00,,OVC200,0.00,0.00,VWS V14.01,2013-02-16 08:52:00,
2013-02-16 02:57:00,2.0,-3.0,30.00,SSE,159,2.0,5.0,79,0.00,,OVC200,0.00,0.00,VWS V14.01,2013-02-16 08:57:00,
2013-02-16 03:00:00,2.2,-2.8,29.99,SSE,159,2.0,5.0,79,0.00,,OVC075,0.00,0.00,VWS V15.00,2013-02-16 09:00:00,
2013-02-16 03:02:00,2.2,-2.8,30.00,SSE,159,2.0,5.0,79,0.00,,OVC200,0.00,0.00,VWS V14.01,2013-02-16 09:02:00,
2013-02-16 03:07:00,2.2,-2.8,29.99,SSE,159,1.0,2.0,79,0.00,,OVC200,0.00,0.00,VWS V14.01,2013-02-16 09:07:00,
2013-02-16 03:12:00,2.4,-2.3,29.99,SSE,150,2.0,5.0,80,0.00,,OVC200,0.00,0.00,VWS V14.01,2013-02-16 09:12:00,
2013-02-16 03:17:00,2.4,-2.3,29.99,SSE,150,0.0,5.0,80,0.00,,OVC200,0.00,0.00,VWS V14.01,2013-02-16 09:17:00,
2013-02-16 03:22:00,2.4,-2.3,29.98,SSE,150,1.0,5.0,80,0.00,,OVC200,0.00,0.00,VWS V14.01,2013-02-16 09:22:00,
2013-02-16 03:27:00,2.4,-2.3,29.98,SSE,150,0.0,5.0,80,0.00,,OVC200,0.00,0.00,VWS V14.01,2013-02-16 09:27:00,
2013-02-16 03:30:00,2.2,-2.5,29.97,SSE,150,0.0,5.0,80,0.00,,OVC075,0.00,0.00,VWS V15.00,2013-02-16 09:30:00,
2013-02-16 03:32:00,2.2,-2.5,29.98,SSE,150,1.0,5.0,80,0.00,,OVC200,0.00,0.00,VWS V14.01,2013-02-16 09:32:00,
2013-02-16 03:37:00,2.2,-2.5,29.97,SSE,150,2.0,2.0,80,0.00,,OVC200,0.00,0.00,VWS V14.01,2013-02-16 09:37:00,
2013-02-16 03:42:00,2.2,-2.5,29.97,SSE,150,2.0,2.0,80,0.00,,OVC200,0.00,0.00,VWS V14.01,2013-02-16 09:42:00,
2013-02-16 03:47:00,2.2,-2.5,29.97,SSE,150,0.0,2.0,80,0.00,,OVC200,0.00,0.00,VWS V14.01,2013-02-16 09:47:00,
2013-02-16 03:48:00,2.2,-2.5,29.97,SSE,150,1.0,2.0,80,0.00,,OVC200,0.00,0.00,VWS V14.01,2013-02-16 09:48:00,
2013-02-16 03:53:00,2.2,-2.5,29.97,SSE,150,2.0,3.0,80,0.00,,OVC200,0.00,0.00,VWS V14.01,2013-02-16 09:53:00,
2013-02-16 03:58:00,2.4,-2.3,29.97,SSE,150,1.0,3.0,80,0.00,,OVC200,0.00,0.00,VWS V14.01,2013-02-16 09:58:00,
2013-02-16 04:00:00,2.4,-2.3,29.97,SSE,150,1.0,3.0,80,0.00,,OVC075,0.00,0.00,VWS V15.00,2013-02-16 10:00:00,
2013-02-16 04:03:00,2.4,-2.3,29.97,SSE,150,0.0,3.0,80,0.00,,OVC200,0.00,0.00,VWS V14.01,2013-02-16 10:03:00,
2013-02-16 04:08:00,2.4,-2.3,29.97,SSE,150,2.0,2.0,80,0.00,,OVC200,0.00,0.00,VWS V14.01,2013-02-16 10:08:00,
2013-02-16 04:13:00,2.4,-2.3,29.97,SSE,150,1.0,2.0,80,0.00,,OVC200,0.00,0.00,VWS V14.01,2013-02-16 10:13:00,
2013-02-16 04:18:00,2.4,-2.1,29.97,SSE,150,1.0,3.0,81,0.00,,OVC200,0.00,0.00,VWS V14.01,2013-02-16 10:18:00,
2013-02-16 04:23:00,2.4,-2.1,29.97,SSE,150,0.0,3.0,81,0.00,,OVC200,0.00,0.00,VWS V14.01,2013-02-16 10:23:00,
2013-02-16 04:28:00,2.4,-2.1,29.97,SSE,150,2.0,3.0,81,0.00,,OVC200,0.00,0.00,VWS V14.01,2013-02-16 10:28:00,
2013-02-16 04:30:00,2.6,-1.9,29.97,SSE,150,2.0,3.0,81,0.00,,OVC075,0.00,0.00,VWS V15.00,2013-02-16 10:30:00,
2013-02-16 04:33:00,2.6,-1.9,29.97,SSE,150,2.0,3.0,81,0.00,,OVC200,0.00,0.00,VWS V14.01,2013-02-16 10:33:00,
2013-02-16 04:38:00,2.6,-1.9,29.97,SSE,150,1.0,3.0,81,0.00,,OVC200,0.00,0.00,VWS V14.01,2013-02-16 10:38:00,
2013-02-16 04:43:00,2.6,-1.9,29.97,SSE,150,1.0,3.0,81,0.00,,OVC200,0.00,0.00,VWS V14.01,2013-02-16 10:43:00,
2013-02-16 04:48:00,2.6,-1.9,29.97,SSE,150,3.0,3.0,81,0.00,,OVC200,0.00,0.00,VWS V14.01,2013-02-16 10:48:00,
2013-02-16 04:53:00,2.6,-1.9,29.97,SSE,150,0.0,3.0,81,0.00,,OVC200,0.00,0.00,VWS V14.01,2013-02-16 10:53:00,
2013-02-16 04:58:00,2.6,-1.9,29.97,SSE,150,4.0,4.0,81,0.00,,OVC200,0.00,0.00,VWS V14.01,2013-02-16 10:58:00,
2013-02-16 05:00:00,2.8,-1.7,29.97,SSE,149,1.0,4.0,81,0.00,,OVC075,0.00,0.00,VWS V15.00,2013-02-16 11:00:00,
2013-02-16 05:03:00,2.8,-1.7,29.97,SSE,149,0.0,4.0,81,0.00,,OVC200,0.00,0.00,VWS V14.01,2013-02-16 11:03:00,
2013-02-16 05:08:00,2.8,-1.7,29.97,SSE,149,1.0,3.0,81,0.00,,OVC200,0.00,0.00,VWS V14.01,2013-02-16 11:08:00,
2013-02-16 05:13:00,2.8,-1.7,29.97,SSE,149,1.0,3.0,81,0.00,,OVC200,0.00,0.00,VWS V14.01,2013-02-16 11:13:00,
2013-02-16 05:18:00,3.0,-1.5,29.97,SSE,149,1.0,3.0,81,0.00,,OVC200,0.00,0.00,VWS V14.01,2013-02-16 11:18:00,
2013-02-16 05:23:00,3.0,-1.5,29.97,SSE,149,1.0,3.0,81,0.00,,OVC200,0.00,0.00,VWS V14.01,2013-02-16 11:23:00,
2013-02-16 05:28:00,3.0,-1.5,29.97,SSE,149,0.0,3.0,81,0.00,,OVC200,0.00,0.00,VWS V14.01,2013-02-16 11:28:00,
2013-02-16 05:30:00,3.2,-1.3,29.97,SSE,149,0.0,3.0,81,0.00,,OVC075,0.00,0.00,VWS V15.00,2013-02-16 11:30:00,
2013-02-16 05:33:00,3.0,-1.5,29.97,SSE,149,0.0,3.0,81,0.00,,OVC200,0.00,0.00,VWS V14.01,2013-02-16 11:33:00,
2013-02-16 05:38:00,3.0,-1.5,29.97,SSE,149,0.0,0.0,81,0.00,,OVC200,0.00,0.00,VWS V14.01,2013-02-16 11:38:00,
2013-02-16 05:43:00,3.0,-1.5,29.97,SSE,149,0.0,0.0,81,0.00,,OVC200,0.00,0.00,VWS V14.01,2013-02-16 11:43:00,
2013-02-16 05:48:00,3.2,-1.3,29.96,SSE,149,0.0,0.0,81,0.00,,OVC200,0.00,0.00,VWS V14.01,2013-02-16 11:48:00,
2013-02-16 05:53:00,3.2,-1.3,29.96,SSE,149,0.0,1.0,81,0.00,,OVC200,0.00,0.00,VWS V14.01,2013-02-16 11:53:00,
2013-02-16 05:58:00,3.2,-1.3,29.96,SSE,149,1.0,1.0,81,0.00,,OVC200,0.00,0.00,VWS V14.01,2013-02-16 11:58:00,
2013-02-16 06:00:00,3.2,-1.3,29.96,SSE,149,0.0,1.0,81,0.00,,OVC075,0.00,0.00,VWS V15.00,2013-02-16 12:00:00,
2013-02-16 06:03:00,3.2,-1.3,29.96,SSE,149,0.0,1.0,81,0.00,,OVC200,0.00,0.00,VWS V14.01,2013-02-16 12:03:00,
2013-02-16 06:08:00,3.2,-1.3,29.96,SSE,149,0.0,0.0,81,0.00,,OVC200,0.00,0.00,VWS V14.01,2013-02-16 12:08:00,
2013-02-16 06:13:00,3.0,-1.5,29.96,SSE,149,0.0,0.0,81,0.00,,OVC200,0.00,0.00,VWS V14.01,2013-02-16 12:13:00,
2013-02-16 06:18:00,3.0,-1.5,29.96,SSE,149,0.0,0.0,81,0.00,,OVC200,0.00,0.00,VWS V14.01,2013-02-16 12:18:00,
2013-02-16 06:23:00,2.8,-1.7,29.96,SSE,149,0.0,0.0,81,0.00,,OVC200,0.00,0.00,VWS V14.01,2013-02-16 12:23:00,
2013-02-16 06:28:00,2.8,-1.7,29.96,SSE,149,0.0,2.0,81,0.00,,OVC200,0.00,0.00,VWS V14.01,2013-02-16 12:28:00,
2013-02-16 06:30:00,2.6,-1.9,29.95,SSE,149,0.0,2.0,81,0.00,,OVC075,0.00,0.00,VWS V15.00,2013-02-16 12:30:00,
2013-02-16 06:33:00,2.8,-1.7,29.95,SSE,149,0.0,2.0,81,0.00,,OVC200,0.00,0.00,VWS V14.01,2013-02-16 12:33:00,
2013-02-16 06:38:00,2.6,-1.9,29.95,SSE,149,0.0,0.0,81,0.00,,OVC200,0.00,0.00,VWS V14.01,2013-02-16 12:38:00,
2013-02-16 06:43:00,2.6,-1.9,29.95,SSE,149,0.0,0.0,81,0.00,,OVC200,0.00,0.00,VWS V14.01,2013-02-16 12:43:00,
2013-02-16 06:48:00,2.6,-1.9,29.95,SSE,149,0.0,0.0,81,0.00,,OVC200,0.00,0.00,VWS V14.01,2013-02-16 12:48:00,
2013-02-16 06:53:00,2.4,-2.3,29.95,SSE,149,0.0,0.0,80,0.00,,OVC200,0.00,0.00,VWS V14.01,2013-02-16 12:53:00,
2013-02-16 06:58:00,2.2,-2.5,29.95,SSE,149,0.0,0.0,80,0.00,,OVC200,0.00,0.00,VWS V14.01,2013-02-16 12:58:00,
2013-02-16 07:00:00,2.0,-2.7,29.95,SSE,149,0.0,0.0,80,0.00,,OVC075,0.00,0.00,VWS V15.00,2013-02-16 13:00:00,
2013-02-16 07:03:00,2.0,-2.7,29.95,SSE,149,0.0,0.0,80,0.00,,OVC200,0.00,0.00,VWS V14.01,2013-02-16 13:03:00,
2013-02-16 07:08:00,1.8,-2.9,29.95,SSE,149,0.0,0.0,80,0.00,,OVC200,0.00,0.00,VWS V14.01,2013-02-16 13:08:00,
2013-02-16 07:13:00,1.1,-3.6,29.95,SSE,149,0.0,0.0,80,0.00,,OVC200,0.00,5.00,VWS V14.01,2013-02-16 13:13:00,
2013-02-16 07:18:00,0.7,-4.0,29.96,SSE,149,0.0,0.0,80,0.00,,OVC200,0.00,7.00,VWS V14.01,2013-02-16 13:18:00,
2013-02-16 07:23:00,0.5,-4.2,29.96,SSE,149,0.0,0.0,80,0.00,,OVC200,0.00,9.00,VWS V14.01,2013-02-16 13:23:00,
2013-02-16 07:28:00,0.5,-4.2,29.96,SSE,149,0.0,0.0,80,0.00,,OVC200,0.00,11.00,VWS V14.01,2013-02-16 13:28:00,
2013-02-16 07:30:00,0.5,-4.2,29.97,SSE,149,0.0,0.0,80,0.00,,OVC075,0.00,12.00,VWS V15.00,2013-02-16 13:30:00,
2013-02-16 07:33:00,0.5,-4.2,29.97,SSE,149,0.0,0.0,80,0.00,,OVC200,0.00,12.00,VWS V14.01,2013-02-16 13:33:00,
2013-02-16 07:38:00,0.5,-4.2,29.97,SSE,149,0.0,0.0,80,0.00,,OVC200,0.00,16.00,VWS V14.01,2013-02-16 13:38:00,
2013-02-16 07:43:00,0.7,-4.0,29.97,SSE,149,0.0,0.0,80,0.00,,OVC200,0.00,21.00,VWS V14.01,2013-02-16 13:43:00,
2013-02-16 07:48:00,0.7,-4.0,29.97,SSE,149,0.0,0.0,80,0.00,,OVC200,0.00,23.00,VWS V14.01,2013-02-16 13:48:00,
2013-02-16 07:53:00,0.7,-4.0,29.97,SSE,149,0.0,0.0,80,0.00,,OVC200,0.00,23.00,VWS V14.01,2013-02-16 13:53:00,
2013-02-16 07:58:00,0.9,-3.8,29.97,SSE,149,0.0,1.0,80,0.00,,OVC200,0.00,26.00,VWS V14.01,2013-02-16 13:58:00,
2013-02-16 08:00:00,0.9,-3.8,29.97,SSE,149,0.0,1.0,80,0.00,,OVC075,0.00,30.00,VWS V15.00,2013-02-16 14:00:00,
2013-02-16 08:03:00,0.9,-3.8,29.97,SSE,149,0.0,1.0,80,0.00,,OVC200,0.00,28.00,VWS V14.01,2013-02-16 14:03:00,
2013-02-16 08:08:00,0.9,-3.8,29.97,SSE,149,0.0,0.0,80,0.00,,OVC200,0.00,35.00,VWS V14.01,2013-02-16 14:08:00,
2013-02-16 08:13:00,0.9,-3.8,29.97,SSE,149,0.0,0.0,80,0.00,,OVC200,0.00,35.00,VWS V14.01,2013-02-16 14:13:00,
2013-02-16 08:18:00,1.1,-3.6,29.96,SSE,149,1.0,2.0,80,0.00,,OVC200,0.00,42.00,VWS V14.01,2013-02-16 14:18:00,
2013-02-16 08:23:00,1.5,-3.2,29.96,SSE,149,2.0,3.0,80,0.00,,OVC200,0.00,79.00,VWS V14.01,2013-02-16 14:23:00,
2013-02-16 08:28:00,1.8,-2.7,29.96,SSE,148,1.0,3.0,81,0.00,,OVC200,0.00,83.00,VWS V14.01,2013-02-16 14:28:00,
2013-02-16 08:30:00,2.2,-2.3,29.97,SSE,148,2.0,4.0,81,0.00,,OVC075,0.00,91.00,VWS V15.00,2013-02-16 14:30:00,
2013-02-16 08:33:00,2.2,-2.3,29.97,SSE,148,2.0,4.0,81,0.00,,OVC200,0.00,91.00,VWS V14.01,2013-02-16 14:33:00,
2013-02-16 08:38:00,2.4,-2.1,29.97,SSE,148,2.0,4.0,81,0.00,,OVC200,0.00,98.00,VWS V14.01,2013-02-16 14:38:00,
2013-02-16 08:43:00,2.4,-2.1,29.97,SSE,148,1.0,4.0,81,0.00,,OVC200,0.00,109.00,VWS V14.01,2013-02-16 14:43:00,
2013-02-16 08:48:00,2.6,-1.9,29.97,SSE,148,1.0,4.0,81,0.00,,OVC200,0.00,116.00,VWS V14.01,2013-02-16 14:48:00,
2013-02-16 08:53:00,2.6,-1.9,29.97,SSE,148,0.0,4.0,81,0.00,,OVC200,0.00,128.00,VWS V14.01,2013-02-16 14:53:00,
2013-02-16 08:58:00,2.8,-1.7,29.97,SSE,148,0.0,4.0,81,0.00,,OVC200,0.00,128.00,VWS V14.01,2013-02-16 14:58:00,
2013-02-16 09:00:00,3.2,-1.3,29.96,SSE,148,0.0,4.0,81,0.00,,OVC075,0.00,128.00,VWS V15.00,2013-02-16 15:00:00,
2013-02-16 09:03:00,3.2,-1.3,29.96,SSE,148,0.0,4.0,81,0.00,,OVC200,0.00,127.00,VWS V14.01,2013-02-16 15:03:00,
2013-02-16 09:08:00,3.4,-1.1,29.96,SSE,148,1.0,3.0,81,0.00,,OVC200,0.00,155.00,VWS V14.01,2013-02-16 15:08:00,
2013-02-16 09:13:00,3.4,-1.1,29.96,SSE,148,2.0,3.0,81,0.00,,OVC200,0.00,171.00,VWS V14.01,2013-02-16 15:13:00,
2013-02-16 09:18:00,3.5,-1.0,29.96,SSE,148,1.0,3.0,81,0.00,,OVC200,0.00,174.00,VWS V14.01,2013-02-16 15:18:00,
2013-02-16 09:23:00,3.9,-0.4,29.96,SSE,148,1.0,3.0,82,0.00,,OVC200,0.00,176.00,VWS V14.01,2013-02-16 15:23:00,
2013-02-16 09:28:00,4.1,-0.4,29.96,SSE,148,0.0,3.0,81,0.00,,OVC200,0.00,190.00,VWS V14.01,2013-02-16 15:28:00,
2013-02-16 09:30:00,4.7,0.4,29.96,SSE,148,2.0,3.0,82,0.00,,OVC075,0.00,227.00,VWS V15.00,2013-02-16 15:30:00,
2013-02-16 09:33:00,4.5,0.2,29.96,SSE,148,0.0,3.0,82,0.00,,OVC200,0.00,223.00,VWS V14.01,2013-02-16 15:33:00,
2013-02-16 09:38:00,4.7,0.4,29.96,SSE,148,0.0,2.0,82,0.00,,OVC200,0.00,211.00,VWS V14.01,2013-02-16 15:38:00,
2013-02-16 09:43:00,5.2,0.9,29.96,SSE,148,0.0,2.0,82,0.00,,OVC200,0.00,239.00,VWS V14.01,2013-02-16 15:43:00,
2013-02-16 09:48:00,5.6,1.3,29.96,SSE,148,0.0,2.0,82,0.00,,OVC200,0.00,311.00,VWS V14.01,2013-02-16 15:48:00,
2013-02-16 09:53:00,6.3,2.0,29.96,SSE,148,0.0,2.0,82,0.00,,OVC200,0.00,294.00,VWS V14.01,2013-02-16 15:53:00,
2013-02-16 09:58:00,6.9,2.6,29.96,SSE,148,0.0,2.0,82,0.00,,OVC200,0.00,306.00,VWS V14.01,2013-02-16 15:58:00,
2013-02-16 10:00:00,7.4,3.1,29.96,SSE,148,0.0,2.0,82,0.00,,OVC075,0.00,343.00,VWS V15.00,2013-02-16 16:00:00,
2013-02-16 10:03:00,7.2,2.9,29.96,SSE,148,0.0,2.0,82,0.00,,OVC200,0.00,341.00,VWS V14.01,2013-02-16 16:03:00,
2013-02-16 10:08:00,7.6,3.0,29.96,SSE,148,0.0,0.0,81,0.00,,OVC200,0.00,367.00,VWS V14.01,2013-02-16 16:08:00,
2013-02-16 10:13:00,8.1,3.5,29.96,SSE,148,0.0,1.0,81,0.00,,OVC200,0.00,297.00,VWS V14.01,2013-02-16 16:13:00,
2013-02-16 10:18:00,8.1,3.5,29.96,SSE,148,0.0,2.0,81,0.00,,OVC200,0.00,315.00,VWS V14.01,2013-02-16 16:18:00,
2013-02-16 10:23:00,8.4,3.8,29.96,SSE,148,1.0,3.0,81,0.00,,OVC200,0.00,362.00,VWS V14.01,2013-02-16 16:23:00,
2013-02-16 10:28:00,8.8,3.9,29.96,SSE,148,0.0,3.0,80,0.00,,OVC200,0.00,374.00,VWS V14.01,2013-02-16 16:28:00,
2013-02-16 10:30:00,9.2,4.3,29.96,SSE,148,1.0,3.0,80,0.00,,OVC075,0.00,448.00,VWS V15.00,2013-02-16 16:30:00,
2013-02-16 10:33:00,9.2,4.3,29.96,SSE,148,2.0,3.0,80,0.00,,OVC200,0.00,424.00,VWS V14.01,2013-02-16 16:33:00,
2013-02-16 10:38:00,9.5,4.6,29.96,SSE,148,0.0,2.0,80,0.00,,OVC200,0.00,408.00,VWS V14.01,2013-02-16 16:38:00,
2013-02-16 10:43:00,9.7,4.5,29.96,SSE,148,0.0,3.0,79,0.00,,OVC200,0.00,432.00,VWS V14.01,2013-02-16 16:43:00,
2013-02-16 10:48:00,9.7,4.5,29.96,SSE,148,1.0,3.0,79,0.00,,OVC200,0.00,427.00,VWS V14.01,2013-02-16 16:48:00,
2013-02-16 10:53:00,10.0,4.8,29.95,SSE,148,0.0,3.0,79,0.00,,OVC200,0.00,547.00,VWS V14.01,2013-02-16 16:53:00,
2013-02-16 10:58:00,10.4,4.9,29.95,SSE,148,1.0,3.0,78,0.00,,OVC200,0.00,617.00,VWS V14.01,2013-02-16 16:58:00,
2013-02-16 11:00:00,11.2,5.7,29.95,SE,141,0.0,3.0,78,0.00,,OVC075,0.00,687.00,VWS V15.00,2013-02-16 17:00:00,
2013-02-16 11:03:00,11.1,5.6,29.95,SE,141,0.0,3.0,78,0.00,,OVC200,0.00,675.00,VWS V14.01,2013-02-16 17:03:00,
2013-02-16 11:08:00,11.7,5.9,29.95,SE,141,0.0,1.0,77,0.00,,OVC200,0.00,410.00,VWS V14.01,2013-02-16 17:08:00,
2013-02-16 11:13:00,12.4,6.3,29.95,SE,142,2.0,3.0,76,0.00,,OVC200,0.00,548.00,VWS V14.01,2013-02-16 17:13:00,
2013-02-16 11:18:00,12.3,5.6,29.95,SE,144,0.0,3.0,74,0.00,,OVC200,0.00,515.00,VWS V14.01,2013-02-16 17:18:00,
2013-02-16 11:23:00,11.9,4.9,29.94,SE,144,0.0,3.0,73,0.00,,OVC200,0.00,292.00,VWS V14.01,2013-02-16 17:23:00,
2013-02-16 11:28:00,11.4,4.4,29.94,SSE,150,1.0,3.0,73,0.00,,OVC200,0.00,302.00,VWS V14.01,2013-02-16 17:28:00,
2013-02-16 11:30:00,11.2,4.2,29.94,SSE,150,0.0,3.0,73,0.00,,OVC075,0.00,309.00,VWS V15.00,2013-02-16 17:30:00,
2013-02-16 11:33:00,11.1,4.2,29.94,SSE,150,0.0,3.0,73,0.00,,OVC200,0.00,279.00,VWS V14.01,2013-02-16 17:33:00,
2013-02-16 11:38:00,11.6,4.6,29.94,SSE,150,0.0,0.0,73,0.00,,OVC200,0.00,376.00,VWS V14.01,2013-02-16 17:38:00,
2013-02-16 11:43:00,11.7,4.4,29.94,SSE,150,0.0,3.0,72,0.00,,OVC200,0.00,244.00,VWS V14.01,2013-02-16 17:43:00,
2013-02-16 11:48:00,11.9,4.3,29.94,SSW,194,0.0,4.0,71,0.00,,OVC200,0.00,568.00,VWS V14.01,2013-02-16 17:48:00,
2013-02-16 11:53:00,12.6,5.0,29.94,SSW,194,0.0,4.0,71,0.00,,OVC200,0.00,563.00,VWS V14.01,2013-02-16 17:53:00,
2013-02-16 11:58:00,12.9,4.7,29.94,SSW,194,0.0,4.0,69,0.00,,OVC200,0.00,573.00,VWS V14.01,2013-02-16 17:58:00,
2013-02-16 12:00:00,14.0,5.4,29.94,SSW,194,0.0,4.0,68,0.00,,OVC075,0.00,578.00,VWS V15.00,2013-02-16 18:00:00,
2013-02-16 12:03:00,13.6,5.3,29.94,SSW,194,0.0,4.0,69,0.00,,OVC200,0.00,578.00,VWS V14.01,2013-02-16 18:03:00,
2013-02-16 12:08:00,14.3,5.4,29.94,SSW,194,2.0,3.0,67,0.00,,OVC200,0.00,578.00,VWS V14.01,2013-02-16 18:08:00,
2013-02-16 12:13:00,14.6,5.0,29.94,SSW,194,0.0,3.0,65,0.00,,OVC200,0.00,580.00,VWS V14.01,2013-02-16 18:13:00,
2013-02-16 12:18:00,14.8,5.2,29.94,SSW,194,0.0,3.0,65,0.00,,OVC200,0.00,582.00,VWS V14.01,2013-02-16 18:18:00,
2013-02-16 12:23:00,14.3,4.4,29.93,SSW,193,1.0,4.0,64,0.00,,OVC200,0.00,580.00,VWS V14.01,2013-02-16 18:23:00,
2013-02-16 12:28:00,14.8,5.5,29.93,SSW,198,0.0,4.0,66,0.00,,OVC200,0.00,582.00,VWS V14.01,2013-02-16 18:28:00,
2013-02-16 12:30:00,14.9,4.6,29.93,SSW,197,2.0,4.0,63,0.00,,OVC075,0.00,575.00,VWS V15.00,2013-02-16 18:30:00,
2013-02-16 12:33:00,14.9,4.9,29.93,SSW,197,1.0,4.0,64,0.00,,OVC200,0.00,577.00,VWS V14.01,2013-02-16 18:33:00,
2013-02-16 12:38:00,14.8,4.5,29.93,SSW,197,0.0,2.0,63,0.00,,OVC200,0.00,578.00,VWS V14.01,2013-02-16 18:38:00,
2013-02-16 12:43:00,14.9,4.6,29.93,SSW,197,2.0,3.0,63,0.00,,OVC200,0.00,578.00,VWS V14.01,2013-02-16 18:43:00,
2013-02-16 12:48:00,15.2,4.9,29.93,SSW,196,1.0,3.0,63,0.00,,OVC200,0.00,578.00,VWS V14.01,2013-02-16 18:48:00,
2013-02-16 12:53:00,15.6,5.3,29.93,SSW,196,0.0,3.0,63,0.00,,OVC200,0.00,577.00,VWS V14.01,2013-02-16 18:53:00,
2013-02-16 12:58:00,16.4,5.7,29.93,South,180,2.0,4.0,62,0.00,,OVC200,0.00,577.00,VWS V14.01,2013-02-16 18:58:00,
2013-02-16 13:00:00,16.2,4.8,29.92,South,180,2.0,4.0,60,0.00,,OVC075,0.00,571.00,VWS V15.00,2013-02-16 19:00:00,
2013-02-16 13:03:00,16.4,5.3,29.93,South,180,3.0,4.0,61,0.00,,OVC200,0.00,571.00,VWS V14.01,2013-02-16 19:03:00,
2013-02-16 13:08:00,15.9,4.8,29.92,SE,143,0.0,4.0,61,0.00,,OVC200,0.00,566.00,VWS V14.01,2013-02-16 19:08:00,
2013-02-16 13:13:00,16.1,5.7,29.92,SE,143,0.0,4.0,63,0.00,,OVC200,0.00,566.00,VWS V14.01,2013-02-16 19:13:00,
2013-02-16 13:18:00,16.9,5.8,29.92,SE,143,0.0,4.0,61,0.00,,OVC200,0.00,561.00,VWS V14.01,2013-02-16 19:18:00,
2013-02-16 13:23:00,17.7,6.2,29.92,SE,132,3.0,4.0,60,0.00,,OVC200,0.00,561.00,VWS V14.01,2013-02-16 19:23:00,
2013-02-16 13:28:00,17.3,5.4,29.92,ENE,69,0.0,5.0,59,0.00,,OVC200,0.00,552.00,VWS V14.01,2013-02-16 19:28:00,
2013-02-16 13:30:00,17.0,5.2,29.91,ENE,77,0.0,5.0,59,0.00,,OVC075,0.00,547.00,VWS V15.00,2013-02-16 19:30:00,
2013-02-16 13:33:00,17.0,5.2,29.92,ENE,76,0.0,5.0,59,0.00,,OVC200,0.00,548.00,VWS V14.01,2013-02-16 19:33:00,
2013-02-16 13:38:00,17.3,6.2,29.91,ENE,76,0.0,3.0,61,0.00,,OVC200,0.00,543.00,VWS V14.01,2013-02-16 19:38:00,
2013-02-16 13:43:00,17.7,6.2,29.91,ENE,68,0.0,3.0,60,0.00,,OVC200,0.00,540.00,VWS V14.01,2013-02-16 19:43:00,
2013-02-16 13:48:00,17.8,5.9,29.91,ENE,70,1.0,3.0,59,0.00,,OVC200,0.00,534.00,VWS V14.01,2013-02-16 19:48:00,
2013-02-16 13:53:00,18.0,5.7,29.91,NW,321,4.0,4.0,58,0.00,,OVC200,0.00,529.00,VWS V14.01,2013-02-16 19:53:00,
2013-02-16 13:58:00,18.0,6.1,29.91,NW,321,2.0,4.0,59,0.00,,OVC200,0.00,520.00,VWS V14.01,2013-02-16 19:58:00,
2013-02-16 14:00:00,17.8,5.5,29.90,NE,36,3.0,4.0,58,0.00,,OVC075,0.00,513.00,VWS V15.00,2013-02-16 20:00:00,
2013-02-16 14:03:00,17.8,5.5,29.91,NNE,33,3.0,4.0,58,0.00,,OVC200,0.00,517.00,VWS V14.01,2013-02-16 20:03:00,
2013-02-16 14:08:00,17.7,5.4,29.90,NE,36,0.0,3.0,58,0.00,,OVC200,0.00,512.00,VWS V14.01,2013-02-16 20:08:00,
2013-02-16 14:13:00,17.8,5.5,29.90,NE,38,3.0,3.0,58,0.00,,OVC200,0.00,501.00,VWS V14.01,2013-02-16 20:13:00,
2013-02-16 14:18:00,17.8,5.9,29.90,ENE,62,0.0,4.0,59,0.00,,OVC200,0.00,490.00,VWS V14.01,2013-02-16 20:18:00,
2013-02-16 14:23:00,18.1,5.8,29.89,ENE,63,3.0,4.0,58,0.00,,OVC200,0.00,483.00,VWS V14.01,2013-02-16 20:23:00,
2013-02-16 14:28:00,18.4,6.5,29.89,ENE,63,0.0,4.0,59,0.00,,OVC200,0.00,475.00,VWS V14.01,2013-02-16 20:28:00,
2013-02-16 14:30:00,18.9,6.2,29.89,ENE,63,0.0,4.0,57,0.00,,OVC075,0.00,461.00,VWS V15.00,2013-02-16 20:30:00,
2013-02-16 14:33:00,18.8,6.1,29.89,ENE,63,1.0,4.0,57,0.00,,OVC200,0.00,462.00,VWS V14.01,2013-02-16 20:33:00,
2013-02-16 14:38:00,19.1,6.0,29.89,ENE,63,0.0,1.0,56,0.00,,OVC200,0.00,455.00,VWS V14.01,2013-02-16 20:38:00,
2013-02-16 14:43:00,18.6,5.1,29.89,ENE,63,0.0,5.0,55,0.00,,OVC200,0.00,445.00,VWS V14.01,2013-02-16 20:43:00,
2013-02-16 14:48:00,18.3,5.6,29.89,ENE,64,0.0,5.0,57,0.00,,OVC200,0.00,434.00,VWS V14.01,2013-02-16 20:48:00,
2013-02-16 14:53:00,18.6,5.9,29.89,ENE,63,0.0,5.0,57,0.00,,OVC200,0.00,424.00,VWS V14.01,2013-02-16 20:53:00,
2013-02-16 14:58:00,18.8,5.7,29.89,ENE,63,0.0,5.0,56,0.00,,OVC200,0.00,415.00,VWS V14.01,2013-02-16 20:58:00,
2013-02-16 15:00:00,18.6,5.5,29.89,ENE,64,0.0,5.0,56,0.00,,OVC075,0.00,401.00,VWS V15.00,2013-02-16 21:00:00,
2013-02-16 15:03:00,18.6,5.5,29.89,ENE,64,0.0,5.0,56,0.00,,OVC200,0.00,404.00,VWS V14.01,2013-02-16 21:03:00,
2013-02-16 15:08:00,18.3,5.6,29.89,ENE,64,1.0,3.0,57,0.00,,OVC200,0.00,392.00,VWS V14.01,2013-02-16 21:08:00,
2013-02-16 15:13:00,17.8,5.5,29.89,East,80,1.0,5.0,58,0.00,,OVC200,0.00,381.00,VWS V14.01,2013-02-16 21:13:00,
2013-02-16 15:18:00,18.1,5.8,29.89,East,80,0.0,5.0,58,0.00,,OVC200,0.00,369.00,VWS V14.01,2013-02-16 21:18:00,
2013-02-16 15:23:00,18.6,6.3,29.89,ENE,78,3.0,5.0,58,0.00,,OVC200,0.00,359.00,VWS V14.01,2013-02-16 21:23:00,
2013-02-16 15:28:00,18.8,6.1,29.89,ENE,78,0.0,5.0,57,0.00,,OVC200,0.00,346.00,VWS V14.01,2013-02-16 21:28:00,
2013-02-16 15:30:00,19.2,6.1,29.89,ENE,78,0.0,5.0,56,0.00,,OVC075,0.00,332.00,VWS V15.00,2013-02-16 21:30:00,
2013-02-16 15:32:00,19.1,6.0,29.89,ENE,78,0.0,5.0,56,0.00,,OVC200,0.00,336.00,VWS V14.01,2013-02-16 21:32:00,
2013-02-16 15:37:00,19.5,6.0,29.89,ENE,73,0.0,1.0,55,0.00,,OVC200,0.00,323.00,VWS V14.01,2013-02-16 21:37:00,
2013-02-16 15:42:00,19.4,5.9,29.89,ENE,74,0.0,3.0,55,0.00,,OVC200,0.00,311.00,VWS V14.01,2013-02-16 21:42:00,
2013-02-16 15:47:00,19.2,6.1,29.89,ENE,74,0.0,3.0,56,0.00,,OVC200,0.00,299.00,VWS V14.01,2013-02-16 21:47:00,
2013-02-16 15:52:00,18.9,5.4,29.89,NE,54,0.0,3.0,55,0.00,,OVC200,0.00,285.00,VWS V14.01,2013-02-16 21:52:00,
2013-02-16 15:57:00,19.1,6.0,29.89,NE,54,0.0,3.0,56,0.00,,OVC200,0.00,272.00,VWS V14.01,2013-02-16 21:57:00,
2013-02-16 16:00:00,19.5,6.4,29.89,NE,54,0.0,3.0,56,0.00,,OVC075,0.00,260.00,VWS V15.00,2013-02-16 22:00:00,
2013-02-16 16:02:00,19.4,6.3,29.89,NE,54,1.0,3.0,56,0.00,,OVC200,0.00,260.00,VWS V14.01,2013-02-16 22:02:00,
2013-02-16 16:07:00,19.7,6.2,29.89,NE,56,1.0,3.0,55,0.00,,OVC200,0.00,248.00,VWS V14.01,2013-02-16 22:07:00,
2013-02-16 16:12:00,19.7,6.2,29.89,NE,56,0.0,3.0,55,0.00,,OVC200,0.00,236.00,VWS V14.01,2013-02-16 22:12:00,
2013-02-16 16:17:00,19.7,6.2,29.89,NE,56,0.0,3.0,55,0.00,,OVC200,0.00,234.00,VWS V14.01,2013-02-16 22:17:00,
2013-02-16 16:22:00,19.7,6.2,29.89,ENE,57,1.0,3.0,55,0.00,,OVC200,0.00,218.00,VWS V14.01,2013-02-16 22:22:00,
2013-02-16 16:27:00,19.2,5.7,29.89,ENE,69,4.0,4.0,55,0.00,,OVC200,0.00,202.00,VWS V14.01,2013-02-16 22:27:00,
2013-02-16 16:30:00,18.8,5.7,29.89,East,96,1.0,5.0,56,0.00,,OVC075,0.00,178.00,VWS V15.00,2013-02-16 22:30:00,
2013-02-16 16:32:00,18.9,5.8,29.89,East,95,3.0,5.0,56,0.00,,OVC200,0.00,181.00,VWS V14.01,2013-02-16 22:32:00,
2013-02-16 16:37:00,18.8,5.7,29.89,East,96,2.0,3.0,56,0.00,,OVC200,0.00,171.00,VWS V14.01,2013-02-16 22:37:00,
2013-02-16 16:42:00,18.9,5.8,29.89,East,94,0.0,3.0,56,0.00,,OVC200,0.00,156.00,VWS V14.01,2013-02-16 22:42:00,
2013-02-16 16:47:00,18.6,5.5,29.89,East,87,0.0,3.0,56,0.00,,OVC200,0.00,134.00,VWS V14.01,2013-02-16 22:47:00,
2013-02-16 16:52:00,18.4,5.3,29.89,East,92,4.0,4.0,56,0.00,,OVC200,0.00,116.00,VWS V14.01,2013-02-16 22:52:00,
2013-02-16 16:57:00,18.4,5.7,29.89,East,90,0.0,4.0,57,0.00,,OVC200,0.00,100.00,VWS V14.01,2013-02-16 22:57:00,
2013-02-16 17:00:00,18.3,5.6,29.90,East,89,0.0,4.0,57,0.00,,OVC075,0.00,84.00,VWS V15.00,2013-02-16 23:00:00,
2013-02-16 17:02:00,18.4,5.3,29.89,East,89,2.0,4.0,56,0.00,,OVC200,0.00,86.00,VWS V14.01,2013-02-16 23:02:00,
2013-02-16 17:07:00,18.1,5.4,29.90,East,89,0.0,2.0,57,0.00,,OVC200,0.00,30.00,VWS V14.01,2013-02-16 23:07:00,
2013-02-16 17:12:00,17.8,5.2,29.90,East,84,0.0,4.0,57,0.00,,OVC200,0.00,26.00,VWS V14.01,2013-02-16 23:12:00,
2013-02-16 17:17:00,17.2,4.6,29.90,East,82,0.0,4.0,57,0.00,,OVC200,0.00,21.00,VWS V14.01,2013-02-16 23:17:00,
2013-02-16 17:22:00,16.7,4.5,29.90,ENE,76,1.0,4.0,58,0.00,,OVC200,0.00,18.00,VWS V14.01,2013-02-16 23:22:00,
2013-02-16 17:27:00,16.4,4.6,29.90,ENE,75,0.0,4.0,59,0.00,,OVC200,0.00,14.00,VWS V14.01,2013-02-16 23:27:00,
2013-02-16 17:30:00,16.1,4.3,29.90,ENE,75,0.0,4.0,59,0.00,,OVC075,0.00,9.00,VWS V15.00,2013-02-16 23:30:00,
2013-02-16 17:32:00,16.1,4.3,29.90,ENE,75,0.0,4.0,59,0.00,,OVC200,0.00,11.00,VWS V14.01,2013-02-16 23:32:00,
2013-02-16 17:37:00,15.7,3.9,29.90,ENE,75,0.0,0.0,59,0.00,,OVC200,0.00,9.00,VWS V14.01,2013-02-16 23:37:00,
2013-02-16 17:42:00,15.4,4.0,29.90,ENE,75,0.0,3.0,60,0.00,,OVC200,0.00,7.00,VWS V14.01,2013-02-16 23:42:00,
2013-02-16 17:47:00,15.1,3.7,29.90,ENE,75,0.0,3.0,60,0.01,,OVC200,0.01,0.00,VWS V14.01,2013-02-16 23:47:00,
2013-02-16 17:52:00,14.8,3.8,29.90,ENE,75,0.0,3.0,61,0.01,,OVC200,0.01,0.00,VWS V14.01,2013-02-16 23:52:00,
2013-02-16 17:57:00,14.6,3.6,29.90,ENE,75,0.0,3.0,61,0.01,,OVC200,0.01,0.00,VWS V14.01,2013-02-16 23:57:00,
2013-02-16 18:00:00,14.1,3.5,29.89,ENE,75,0.0,3.0,62,0.01,,OVC075,0.01,0.00,VWS V15.00,2013-02-17 00:00:00,
2013-02-16 18:02:00,14.3,3.7,29.90,ENE,75,0.0,3.0,62,0.01,,OVC200,0.01,0.00,VWS V14.01,2013-02-17 00:02:00,
2013-02-16 18:07:00,14.0,3.4,29.89,ENE,75,0.0,0.0,62,0.01,,OVC200,0.01,0.00,VWS V14.01,2013-02-17 00:07:00,
2013-02-16 18:12:00,13.6,3.4,29.89,ENE,75,0.0,0.0,63,0.01,,OVC200,0.01,0.00,VWS V14.01,2013-02-17 00:12:00,
2013-02-16 18:17:00,13.5,3.6,29.89,ENE,75,0.0,1.0,64,0.01,,OVC200,0.01,0.00,VWS V14.01,2013-02-17 00:17:00,
2013-02-16 18:22:00,13.1,3.2,29.90,ENE,75,0.0,1.0,64,0.01,,OVC200,0.01,0.00,VWS V14.01,2013-02-17 00:22:00,
2013-02-16 18:27:00,12.9,3.0,29.90,ENE,75,0.0,1.0,64,0.01,,OVC200,0.01,0.00,VWS V14.01,2013-02-17 00:27:00,
2013-02-16 18:30:00,12.4,2.6,29.90,ENE,75,0.0,1.0,64,0.01,,OVC075,0.01,0.00,VWS V15.00,2013-02-17 00:30:00,
2013-02-16 18:32:00,12.6,2.8,29.90,ENE,75,0.0,1.0,64,0.01,,OVC200,0.01,0.00,VWS V14.01,2013-02-17 00:32:00,
2013-02-16 18:37:00,12.3,2.8,29.90,ENE,75,0.0,0.0,65,0.01,,OVC200,0.01,0.00,VWS V14.01,2013-02-17 00:37:00,
2013-02-16 18:42:00,12.1,2.6,29.90,ENE,75,0.0,0.0,65,0.01,,OVC200,0.01,0.00,VWS V14.01,2013-02-17 00:42:00,
2013-02-16 18:47:00,11.9,2.7,29.90,ENE,75,0.0,0.0,66,0.01,,OVC200,0.01,0.00,VWS V14.01,2013-02-17 00:47:00,
2013-02-16 18:52:00,11.9,2.7,29.90,ENE,75,0.0,0.0,66,0.01,,OVC200,0.01,0.00,VWS V14.01,2013-02-17 00:52:00,
2013-02-16 18:57:00,11.7,2.9,29.90,ENE,75,0.0,0.0,67,0.01,,OVC200,0.01,0.00,VWS V14.01,2013-02-17 00:57:00,
2013-02-16 19:00:00,11.6,2.8,29.90,ENE,75,0.0,0.0,67,0.01,,OVC075,0.01,0.00,VWS V15.00,2013-02-17 01:00:00,
2013-02-16 19:02:00,11.7,2.9,29.90,ENE,75,0.0,0.0,67,0.01,,OVC200,0.01,0.00,VWS V14.01,2013-02-17 01:02:00,
2013-02-16 19:07:00,11.6,3.1,29.90,ENE,75,0.0,0.0,68,0.00,,OVC200,0.01,0.00,VWS V14.01,2013-02-17 01:07:00,
2013-02-16 19:12:00,11.6,3.1,29.90,ENE,75,0.0,0.0,68,0.00,,OVC200,0.01,0.00,VWS V14.01,2013-02-17 01:12:00,
2013-02-16 19:17:00,11.6,3.1,29.90,ENE,75,0.0,1.0,68,0.00,,OVC200,0.01,0.00,VWS V14.01,2013-02-17 01:17:00,
2013-02-16 19:22:00,11.6,3.1,29.89,ENE,75,0.0,1.0,68,0.00,,OVC200,0.01,0.00,VWS V14.01,2013-02-17 01:22:00,
2013-02-16 19:27:00,11.4,2.9,29.89,ENE,75,0.0,1.0,68,0.00,,OVC200,0.01,0.00,VWS V14.01,2013-02-17 01:27:00,
2013-02-16 19:30:00,11.1,2.6,29.89,ENE,75,0.0,1.0,68,0.00,,OVC075,0.01,0.00,VWS V15.00,2013-02-17 01:30:00,
2013-02-16 19:32:00,11.1,2.6,29.89,ENE,75,0.0,1.0,68,0.00,,OVC200,0.01,0.00,VWS V14.01,2013-02-17 01:32:00,
2013-02-16 19:37:00,10.9,2.4,29.89,ENE,75,0.0,0.0,68,0.00,,OVC200,0.01,0.00,VWS V14.01,2013-02-17 01:37:00,
2013-02-16 19:42:00,10.9,2.7,29.89,ENE,75,0.0,0.0,69,0.00,,OVC200,0.01,0.00,VWS V14.01,2013-02-17 01:42:00,
2013-02-16 19:47:00,10.9,2.7,29.89,ENE,75,0.0,2.0,69,0.00,,OVC200,0.01,0.00,VWS V14.01,2013-02-17 01:47:00,
2013-02-16 19:52:00,10.7,2.5,29.89,ENE,75,1.0,2.0,69,0.00,,OVC200,0.01,0.00,VWS V14.01,2013-02-17 01:52:00,
2013-02-16 19:57:00,10.7,2.5,29.89,ENE,75,0.0,2.0,69,0.00,,OVC200,0.01,0.00,VWS V14.01,2013-02-17 01:57:00,
2013-02-16 20:00:00,10.5,2.4,29.89,ENE,75,0.0,2.0,69,0.00,,OVC075,0.01,0.00,VWS V15.00,2013-02-17 02:00:00,
2013-02-16 20:02:00,10.7,2.5,29.89,ENE,75,0.0,2.0,69,0.00,,OVC200,0.01,0.00,VWS V14.01,2013-02-17 02:02:00,
2013-02-16 20:07:00,10.5,2.4,29.89,ENE,75,0.0,1.0,69,0.00,,OVC200,0.01,0.00,VWS V14.01,2013-02-17 02:07:00,
2013-02-16 20:12:00,10.4,2.6,29.89,ENE,75,1.0,1.0,70,0.00,,OVC200,0.01,0.00,VWS V14.01,2013-02-17 02:12:00,
2013-02-16 20:17:00,10.4,2.6,29.89,ENE,75,0.0,1.0,70,0.00,,OVC200,0.01,0.00,VWS V14.01,2013-02-17 02:17:00,
2013-02-16 20:22:00,10.4,2.6,29.88,ENE,75,0.0,1.0,70,0.00,,OVC200,0.01,0.00,VWS V14.01,2013-02-17 02:22:00,
2013-02-16 20:27:00,10.2,2.4,29.88,ENE,75,0.0,1.0,70,0.00,,OVC200,0.01,0.00,VWS V14.01,2013-02-17 02:27:00,
2013-02-16 20:30:00,10.2,2.7,29.88,ENE,75,0.0,1.0,71,0.00,,OVC075,0.01,0.00,VWS V15.00,2013-02-17 02:30:00,
2013-02-16 20:32:00,10.2,2.7,29.88,ENE,75,0.0,1.0,71,0.00,,OVC200,0.01,0.00,VWS V14.01,2013-02-17 02:32:00,
2013-02-16 20:37:00,10.2,2.7,29.88,ENE,75,0.0,0.0,71,0.00,,OVC200,0.01,0.00,VWS V14.01,2013-02-17 02:37:00,
2013-02-16 20:42:00,10.2,2.7,29.88,ENE,75,0.0,0.0,71,0.00,,OVC200,0.01,0.00,VWS V14.01,2013-02-17 02:42:00,
2013-02-16 20:47:00,10.0,2.5,29.88,ENE,75,0.0,0.0,71,0.00,,OVC200,0.01,0.00,VWS V14.01,2013-02-17 02:47:00,
2013-02-16 20:52:00,10.0,2.5,29.88,ENE,75,0.0,1.0,71,0.00,,OVC200,0.01,0.00,VWS V14.01,2013-02-17 02:52:00,
2013-02-16 20:57:00,10.0,2.8,29.88,ENE,75,0.0,2.0,72,0.00,,OVC200,0.01,0.00,VWS V14.01,2013-02-17 02:57:00,
2013-02-16 21:00:00,9.9,2.7,29.88,ENE,74,0.0,2.0,72,0.00,,OVC075,0.01,0.00,VWS V15.00,2013-02-17 03:00:00,
2013-02-16 21:02:00,10.0,2.8,29.88,ENE,74,0.0,2.0,72,0.00,,OVC200,0.01,0.00,VWS V14.01,2013-02-17 03:02:00,
2013-02-16 21:07:00,9.9,2.7,29.88,ENE,74,0.0,2.0,72,0.00,,OVC200,0.01,0.00,VWS V14.01,2013-02-17 03:07:00,
2013-02-16 21:12:00,9.7,2.5,29.88,ENE,74,0.0,2.0,72,0.00,,OVC200,0.01,0.00,VWS V14.01,2013-02-17 03:12:00,
2013-02-16 21:17:00,9.5,2.3,29.88,ENE,74,0.0,2.0,72,0.00,,OVC200,0.01,0.00,VWS V14.01,2013-02-17 03:17:00,
2013-02-16 21:22:00,9.3,2.1,29.88,ENE,71,0.0,2.0,72,0.00,,OVC200,0.01,0.00,VWS V14.01,2013-02-17 03:22:00,
2013-02-16 21:27:00,9.2,2.0,29.88,ENE,71,0.0,2.0,72,0.00,,OVC200,0.01,0.00,VWS V14.01,2013-02-17 03:27:00,
2013-02-16 21:30:00,9.0,1.8,29.88,ENE,71,0.0,2.0,72,0.00,,OVC075,0.01,0.00,VWS V15.00,2013-02-17 03:30:00,
2013-02-16 21:32:00,9.2,2.0,29.88,ENE,71,0.0,2.0,72,0.00,,OVC200,0.01,0.00,VWS V14.01,2013-02-17 03:32:00,
2013-02-16 21:37:00,9.0,1.8,29.88,ENE,71,0.0,0.0,72,0.00,,OVC200,0.01,0.00,VWS V14.01,2013-02-17 03:37:00,
2013-02-16 21:42:00,8.8,1.9,29.88,ENE,71,0.0,1.0,73,0.00,,OVC200,0.01,0.00,VWS V14.01,2013-02-17 03:42:00,
2013-02-16 21:47:00,8.8,1.9,29.88,ENE,71,0.0,2.0,73,0.00,,OVC200,0.01,0.00,VWS V14.01,2013-02-17 03:47:00,
2013-02-16 21:52:00,9.0,2.1,29.87,ENE,71,0.0,2.0,73,0.00,,OVC200,0.01,0.00,VWS V14.01,2013-02-17 03:52:00,
2013-02-16 21:57:00,9.2,2.6,29.87,ENE,71,0.0,2.0,74,0.00,,OVC200,0.01,0.00,VWS V14.01,2013-02-17 03:57:00,
2013-02-16 22:00:00,9.2,2.3,29.87,ENE,71,0.0,2.0,73,0.00,,OVC075,0.01,0.00,VWS V15.00,2013-02-17 04:00:00,
2013-02-16 22:02:00,9.2,2.3,29.87,ENE,71,0.0,2.0,73,0.00,,OVC200,0.01,0.00,VWS V14.01,2013-02-17 04:02:00,
2013-02-16 22:07:00,9.0,2.1,29.87,ENE,71,0.0,0.0,73,0.00,,OVC200,0.01,0.00,VWS V14.01,2013-02-17 04:07:00,
2013-02-16 22:12:00,8.8,1.9,29.87,ENE,71,0.0,0.0,73,0.00,,OVC200,0.01,0.00,VWS V14.01,2013-02-17 04:12:00,
2013-02-16 22:17:00,8.8,2.2,29.87,ENE,71,0.0,1.0,74,0.00,,OVC200,0.01,0.00,VWS V14.01,2013-02-17 04:17:00,
2013-02-16 22:22:00,9.0,2.4,29.87,ENE,71,0.0,1.0,74,0.00,,OVC200,0.01,0.00,VWS V14.01,2013-02-17 04:22:00,
2013-02-16 22:27:00,8.8,2.2,29.87,ENE,71,0.0,1.0,74,0.00,,OVC200,0.01,0.00,VWS V14.01,2013-02-17 04:27:00,
2013-02-16 22:30:00,9.0,2.4,29.87,ENE,71,0.0,1.0,74,0.00,,OVC075,0.01,0.00,VWS V15.00,2013-02-17 04:30:00,
2013-02-16 22:32:00,9.0,2.4,29.87,ENE,71,0.0,1.0,74,0.00,,OVC200,0.01,0.00,VWS V14.01,2013-02-17 04:32:00,
2013-02-16 22:37:00,9.0,2.4,29.87,ENE,71,0.0,0.0,74,0.00,,OVC200,0.01,0.00,VWS V14.01,2013-02-17 04:37:00,
2013-02-16 22:42:00,8.8,2.2,29.87,ENE,71,0.0,1.0,74,0.00,,OVC200,0.01,0.00,VWS V14.01,2013-02-17 04:42:00,
2013-02-16 22:47:00,8.8,2.2,29.87,ENE,71,0.0,1.0,74,0.00,,OVC200,0.01,0.00,VWS V14.01,2013-02-17 04:47:00,
2013-02-16 22:52:00,8.6,2.0,29.87,ENE,71,0.0,1.0,74,0.00,,OVC200,0.01,0.00,VWS V14.01,2013-02-17 04:52:00,
2013-02-16 22:57:00,8.4,1.8,29.87,ENE,71,0.0,1.0,74,0.00,,OVC200,0.01,0.00,VWS V14.01,2013-02-17 04:57:00,
2013-02-16 23:00:00,8.3,1.7,29.87,ENE,71,0.0,1.0,74,0.00,,OVC200,0.01,0.00,VWS V14.01,2013-02-17 05:00:00,
2013-02-16 23:05:00,8.3,1.7,29.86,ENE,71,0.0,0.0,74,0.00,,OVC200,0.01,0.00,VWS V14.01,2013-02-17 05:05:00,
2013-02-16 23:10:00,8.1,1.5,29.86,ENE,71,0.0,0.0,74,0.00,,OVC200,0.01,0.00,VWS V14.01,2013-02-17 05:10:00,
2013-02-16 23:15:00,8.1,1.5,29.86,ENE,71,0.0,0.0,74,0.00,,OVC200,0.01,0.00,VWS V14.01,2013-02-17 05:15:00,
2013-02-16 23:20:00,7.9,1.4,29.86,ENE,71,0.0,0.0,74,0.00,,OVC200,0.01,0.00,VWS V14.01,2013-02-17 05:20:00,
2013-02-16 23:25:00,7.9,1.6,29.86,ENE,71,0.0,0.0,75,0.00,,OVC200,0.01,0.00,VWS V14.01,2013-02-17 05:25:00,
2013-02-16 23:30:00,7.9,1.6,29.86,ENE,71,0.0,0.0,75,0.00,,OVC200,0.01,0.00,VWS V14.01,2013-02-17 05:30:00,
2013-02-16 23:35:00,8.1,1.8,29.84,ENE,71,0.0,0.0,75,0.00,,OVC200,0.01,0.00,VWS V14.01,2013-02-17 05:35:00,
2013-02-16 23:40:00,8.3,2.0,29.84,ENE,71,0.0,0.0,75,0.00,,OVC200,0.01,0.00,VWS V14.01,2013-02-17 05:40:00,
2013-02-16 23:45:00,8.4,2.1,29.84,ENE,71,0.0,0.0,75,0.00,,OVC200,0.01,0.00,VWS V14.01,2013-02-17 05:45:00,
2013-02-16 23:50:00,8.6,2.3,29.84,ENE,71,0.0,2.0,75,0.00,,OVC200,0.01,0.00,VWS V14.01,2013-02-17 05:50:00,
2013-02-16 23:55:00,8.8,2.5,29.84,ENE,71,0.0,2.0,75,0.00,,OVC200,0.01,0.00,VWS V14.01,2013-02-17 05:55:00,